AirNav   Everest Fuels
 
 441 users online  

86F Carnegie Municipal Airport
Carnegie, Oklahoma, USA

GOING TO CARNEGIE?


FAA INFORMATION EFFECTIVE 10 SEPTEMBER 2020

Location

FAA Identifier: 86F
Lat/Long: 35-07-25.4000N 098-34-30.9000W
35-07.423333N 098-34.515000W
35.1237222,-98.5752500
(estimated)
Elevation: 1354 ft. / 413 m (estimated)
Variation: 07E (1985)
From city: 2 miles NE of CARNEGIE, OK
Time zone: UTC -5 (UTC -6 during Standard Time)
Zip code: 73015

Airport Operations

Airport use: Open to the public
Activation date: 12/1972
Control tower: no
ARTCC: FORT WORTH CENTER
FSS: MC ALESTER FLIGHT SERVICE STATION
NOTAMs facility: MLC (NOTAM-D service available)
Attendance: UNATNDD
Wind indicator: yes
Segmented circle: no
Lights: ACTVT MIRL RY 17/35 - CTAF.
Beacon: white-green (lighted land airport)
Operates sunset to sunrise.

Airport Communications

CTAF: 122.9

Nearby radio navigation aids

VOR radial/distance  VOR name  Freq  Var
HBRr047/28.5HOBART VORTAC111.8010E
BFVr097/31.7BURNS FLAT VORTAC110.0005E
LAWr339/38.5LAWTON VOR/DME109.4009E

Airport Services

Parking: tiedowns
Airframe service: NONE
Powerplant service: NONE
Bottled oxygen: NONE
Bulk oxygen: NONE

Runway Information

Runway 17/35

Dimensions: 3000 x 60 ft. / 914 x 18 m
Surface: asphalt/concrete, in excellent condition
Weight bearing capacity: 
Single wheel: 11.0
Runway edge lights: medium intensity
RUNWAY 17  RUNWAY 35
Latitude: 35-07.670003N35-07.175358N
Longitude: 098-34.512895W098-34.516102W
Elevation: 1342.0 ft.1354.0 ft.
Traffic pattern: leftleft
Runway heading: 173 magnetic, 180 true353 magnetic, 000 true
Markings: basic, in good conditionbasic, in good condition

Airport Ownership and Management from official FAA records

Ownership: Publicly-owned
Owner: CITY OF CARNEGIE
PO BOX 1075, 11 E MAIN
CARNEGIE, OK 73015
Phone 580-654-1004
Manager: ROBERT PETTIT
30150 COUNTY STREET 2475
CARNEGIE, OK 73015
Phone (580) 574-3140

Airport Operational Statistics

Aircraft based on the field: 9
Single engine airplanes: 6
Multi engine airplanes: 1
Helicopters: 2
    
Aircraft operations: avg 83/month *
60% transient general aviation
40% local general aviation
* for 12-month period ending 04 June 2020

Additional Remarks

A58-35 RWY 35 HAS 9 FT TREES/BRUSH 105 FT FM RWY END AND 77 FT RIGHT.
FOR CD CTC FORT WORTH ARTCC AT 817-858-7584.

Instrument Procedures

There are no published instrument procedures at 86F.

Some nearby airports with instrument procedures:

KHBR - Hobart Regional Airport (25 nm W)
2O8 - Hinton Municipal Airport (26 nm NE)
KOJA - Thomas P Stafford Airport (26 nm N)
KFSI - Henry Post Army Airfield (Fort Sill) (30 nm S)
KCHK - Chickasha Municipal Airport (30 nm E)
 
Loc | Ops | Rwys | IFR | FBO | Links
Com | Nav | Svcs | Stats | Notes
Area around 86F (Carnegie Municipal Airport)
 
Road maps at: MapQuest Bing Google
 
Aerial photo
WARNING: Photo may not be current or correct
Aerial photo of 86F (Carnegie Municipal Airport)
Photo taken 12-Nov-2005
looking North just before sunset

Do you have a better or more recent aerial photo of Carnegie Municipal Airport that you would like to share? If so, please send us your photo.

 
Sectional chart

 
Airport distance calculator
Flying to Carnegie Municipal Airport? Find the distance to fly.

From to 86F

Sunrise and sunset
Times for 27-Sep-2020
 Local
(UTC-5)
 Zulu
(UTC)
Morning civil twilight07:0312:03
Sunrise07:2812:28
Sunset19:2200:22
Evening civil twilight19:4700:47

Current date and time
Zulu (UTC)  27-Sep-2020 09:18:24
Local (UTC-5)  27-Sep-2020 04:18:24
 
METAR
KHBR 
25nm W 
270853Z AUTO 18018G29KT 10SM CLR 22/18 A2966 RMK AO2 PK WND 18030/0840 SLP023 T02220183 58013
KOJA 
26nm N 
270855Z AUTO 16008KT 10SM CLR 21/18 A2967 RMK AO2 T02060180
KCHK 
30nm E 
270855Z AUTO 13010KT 10SM CLR 20/18 A2968 RMK AO2 T02050177
KCLK 
30nm NW 
270855Z AUTO 16013KT 10SM CLR 21/17 A2967 RMK AO2
KFSI 
31nm S 
270656Z AUTO 16012KT 10SM CLR 22/19 A2971 RMK AO2 SLP050 T02170189 $
KCSM 
33nm NW 
270853Z AUTO 18020G25KT 10SM CLR 21/18 A2965 RMK AO2 SLP015 T02060178 58018
KRQO 
35nm NE 
270855Z AUTO 16015KT 10SM CLR 20/18 A2971 RMK AO2 T01960175
KLAW 
35nm S 
270853Z AUTO 14010KT 10SM CLR 22/18 A2969 RMK AO2 SLP041 T02170178 56014 $
KRCE 
43nm NE 
270855Z AUTO 17015G21KT 10SM 21/18 A2969 RMK AO2
KLTS 
44nm SW 
270656Z AUTO 15010KT 9SM CLR 21/ A2969 RMK AO2 SLP038 $
TAF
NOTAMs
Click for the latest NOTAMs
NOTAMs are issued by the DoD/FAA and will open in a separate window not controlled by AirNav.

 

 
 

Would you like to see your business listed on this page?

 If your business provides an interesting product or service to pilots, flight crews, aircraft, or users of the Carnegie Municipal Airport, you should consider listing it here.  To start the listing process, click on the button below
 
Add a business
 

Other Pages about Carnegie Municipal Airport

Update a link
 
Copyright © AirNav, LLC. All rights reserved. Privacy Policy  Contact